Date,TemperatureHighF,TemperatureAvgF,TemperatureLowF,DewpointHighF,DewpointAvgF,DewpointLowF,HumidityHigh,HumidityAvg,HumidityLow,PressureMaxIn,PressureMinIn,WindSpeedMaxMPH,WindSpeedAvgMPH,GustSpeedMaxMPH,PrecipitationSumIn
2014-1-1,50.7,38.7,29.8,33.8,30.2,26.0,98,75,38,30.46,30.20,0,0,4,0.00
2014-1-2,48.6,43.4,37.0,46.8,39.7,22.3,100,87,53,30.20,29.70,3,0,19,0.19
2014-1-3,36.9,27.9,21.0,20.4,8.6,3.8,71,45,27,30.54,29.85,3,0,17,0.00
2014-1-4,35.5,27.2,16.5,26.7,15.0,11.2,85,62,40,30.58,30.32,1,0,4,0.00
2014-1-5,41.9,37.7,32.8,41.9,36.8,26.7,100,96,78,30.32,29.83,0,0,4,0.40
2014-1-6,44.6,35.7,14.3,44.6,23.4,-9.2,100,66,30,30.34,29.72,5,1,19,0.11
2014-1-7,26.4,16.4,8.1,5.8,-3.2,-8.3,63,42,26,30.59,30.33,1,0,9,0.00
2014-1-8,46.0,26.3,12.6,16.1,8.1,1.2,86,53,16,30.67,30.55,1,0,6,0.00
2014-1-9,52.6,37.0,21.4,31.2,20.2,7.8,82,55,21,30.64,30.48,1,0,6,0.00
2014-1-10,45.8,41.8,39.2,43.1,40.3,32.7,100,95,60,30.47,30.13,0,0,3,0.80
2014-1-11,64.7,51.8,42.3,64.7,51.5,42.3,100,99,87,30.12,29.66,8,1,29,1.07
2014-1-12,58.4,45.7,34.0,48.3,34.7,29.0,96,69,33,30.23,29.79,3,0,9,0.00
2014-1-13,58.6,45.4,30.6,44.9,35.5,29.4,100,72,40,30.22,29.99,3,0,13,0.10
2014-1-14,58.9,47.4,36.5,50.6,44.0,35.7,100,90,50,30.02,29.84,2,0,10,0.07
2014-1-15,58.9,41.4,28.8,39.2,33.6,28.8,100,77,40,30.02,29.87,3,0,11,0.00
2014-1-16,46.0,35.9,25.3,30.9,22.4,18.5,86,60,33,30.11,29.99,2,0,12,0.00
2014-1-17,53.9,40.8,28.2,30.2,21.5,13.0,64,47,28,30.08,29.91,4,1,22,0.00
2014-1-18,41.5,34.0,27.8,20.1,13.5,7.4,59,43,29,30.17,29.96,3,1,14,0.00
2014-1-19,54.8,42.8,33.7,26.7,20.2,13.1,57,41,28,30.06,29.99,4,1,15,0.00
2014-1-20,65.6,46.0,30.9,28.1,25.6,21.3,77,49,21,30.00,29.85,4,1,15,0.00
2014-1-21,56.9,41.6,30.4,32.3,25.0,15.9,82,53,37,29.90,29.57,2,0,14,0.00
2014-1-22,36.9,28.2,21.6,15.2,7.3,-3.0,60,43,18,30.15,29.91,1,0,10,0.00
2014-1-23,41.3,28.6,18.3,12.7,7.3,-3.7,74,44,22,30.48,30.14,3,0,14,0.00
2014-1-24,29.7,20.8,12.4,3.5,-6.0,-11.7,42,31,16,30.70,30.35,1,0,9,0.00
2014-1-25,40.8,30.6,18.4,16.0,5.5,-3.0,45,35,24,30.34,29.78,6,2,21,0.00
2014-1-26,53.1,39.9,22.5,29.7,21.0,14.5,78,49,23,30.03,29.91,3,0,14,0.00
2014-1-27,64.5,51.9,39.1,35.1,31.0,19.5,55,45,31,30.10,29.82,3,1,13,0.00
2014-1-28,38.8,28.5,21.0,18.8,6.5,-3.7,83,44,21,30.35,30.10,1,0,13,0.00
2014-1-29,30.3,23.3,15.1,15.6,9.6,3.0,78,58,31,30.44,30.23,0,0,4,0.05
2014-1-30,14.8,14.7,14.6,9.0,8.8,8.6,78,77,76,30.44,30.43,0,0,0,0.00
2014-2-1,57.6,41.7,23.2,39.7,25.1,18.0,85,57,22,30.30,30.16,1,0,6,0.00
2014-2-2,69.8,52.9,40.6,50.9,45.5,38.5,100,78,49,30.19,30.02,4,1,17,0.00
2014-2-3,71.6,59.3,47.0,63.1,52.5,38.8,100,79,56,30.25,29.90,5,1,16,0.17
2014-2-4,46.7,40.2,37.9,39.0,36.9,33.2,100,89,71,30.41,30.16,1,0,10,0.32
2014-2-5,60.2,45.3,38.0,48.8,40.1,29.0,100,84,48,30.16,29.87,4,1,18,0.12
2014-2-6,44.1,38.3,32.4,29.0,24.1,19.9,71,57,41,30.40,30.16,1,0,10,0.00
2014-2-7,53.5,41.3,29.3,31.5,28.7,25.6,95,63,36,30.41,30.27,1,0,9,0.00
2014-2-8,58.4,44.6,35.9,35.4,33.0,30.8,85,66,39,30.32,30.13,1,0,7,0.00
2014-2-9,61.6,48.2,36.6,39.9,36.7,32.1,89,67,40,30.19,29.99,5,0,15,0.00
2014-2-10,49.5,39.7,34.7,36.5,33.6,31.0,96,80,49,30.29,30.07,1,0,11,0.11
2014-2-11,34.7,32.8,28.8,32.9,29.3,20.6,94,88,58,30.42,30.26,1,0,9,0.11
2014-2-12,28.8,25.8,23.8,26.0,21.9,17.8,94,85,69,30.45,29.87,1,0,14,0.00
2014-2-13,43.2,33.5,26.1,38.0,30.5,24.6,100,90,67,29.87,29.60,3,0,11,0.53
2014-2-14,54.7,40.7,27.3,33.2,28.9,24.1,90,65,39,29.89,29.73,1,0,9,0.41
2014-2-15,49.8,41.0,29.1,39.9,27.2,10.9,100,63,22,30.12,29.61,4,1,17,0.18
2014-2-16,58.6,41.8,30.1,29.6,24.3,19.3,76,53,27,30.18,30.07,2,0,11,0.00
2014-2-17,51.7,40.4,29.4,29.4,26.6,22.5,88,60,38,30.40,30.18,3,0,12,0.00
2014-2-18,67.3,48.8,32.5,37.7,31.0,23.7,86,55,21,30.28,30.09,1,0,6,0.00
2014-2-19,76.8,62.0,48.2,59.4,53.1,36.9,100,76,42,30.10,29.94,6,1,18,0.81
2014-2-20,77.7,65.0,52.5,58.9,53.5,47.5,100,70,40,30.17,29.97,5,1,15,0.00
2014-2-21,66.8,59.7,39.1,62.1,50.9,27.6,100,76,28,30.08,29.85,4,1,16,0.88
2014-2-22,67.3,47.8,33.1,37.7,29.6,20.4,99,59,17,30.25,30.09,2,0,7,0.00
2014-2-23,69.6,51.7,35.8,44.7,36.2,31.6,94,61,25,30.16,29.94,3,0,12,0.00
2014-2-24,67.4,52.0,37.8,43.6,32.8,18.6,96,55,22,30.16,29.93,1,0,10,0.00
2014-2-25,66.4,50.3,39.9,31.2,24.4,17.5,46,37,24,30.14,29.93,2,0,10,0.00
2014-2-26,52.9,42.9,32.7,25.4,21.7,17.7,58,43,27,29.99,29.82,2,0,11,0.00
2014-2-27,58.3,41.6,27.8,21.3,14.5,6.2,68,37,14,30.04,29.83,3,0,12,0.00
2014-2-28,51.7,39.3,28.2,20.3,13.3,8.5,56,35,22,30.32,30.04,3,0,15,0.00
2014-3-1,58.4,41.9,32.7,34.6,26.9,18.2,84,56,37,30.42,30.25,1,0,6,0.00
2014-3-2,73.7,53.3,31.3,46.1,39.1,30.0,100,64,35,30.30,29.94,4,1,14,0.00
2014-3-3,61.3,45.2,26.9,53.5,39.2,20.3,98,81,56,30.29,29.83,2,0,14,0.35
2014-3-4,40.6,31.5,20.2,20.1,12.0,5.8,76,46,28,30.42,30.25,1,0,9,0.00
2014-3-5,55.1,40.3,32.7,27.3,21.2,15.4,76,48,30,30.30,30.15,1,0,9,0.00
2014-3-6,40.8,35.3,31.2,33.3,23.0,14.4,98,64,41,30.41,30.06,2,0,11,0.86
2014-3-7,43.1,36.4,32.1,41.7,36.0,31.6,100,98,93,30.06,29.98,2,1,16,1.20
2014-3-8,70.3,48.8,28.4,46.6,37.6,28.4,100,71,34,30.17,30.02,3,0,11,0.00
2014-3-9,72.5,54.6,37.2,42.4,38.1,34.1,96,60,27,30.14,30.04,2,0,10,0.00
2014-3-10,74.9,55.5,33.4,41.2,34.1,27.8,94,50,22,30.07,29.86,3,0,15,0.00
2014-3-11,80.7,61.4,38.8,46.2,38.9,31.8,97,50,17,29.87,29.72,2,0,12,0.00
2014-3-12,75.4,61.9,44.9,59.3,49.6,24.8,99,67,30,29.75,29.32,9,2,34,0.08
2014-3-13,51.9,41.9,32.7,24.0,12.4,2.5,54,32,13,30.30,29.76,3,0,17,0.00
2014-3-14,64.7,45.3,24.4,24.4,18.8,10.1,83,42,16,30.39,30.11,3,0,14,0.00
2014-3-15,73.7,58.0,43.3,39.0,31.6,24.1,63,39,22,30.13,30.01,3,1,12,0.00
2014-3-16,52.5,49.4,44.5,51.2,45.3,38.2,100,87,64,30.06,29.79,2,0,9,1.65
2014-3-17,44.1,34.8,31.9,44.1,34.4,31.4,100,99,96,30.03,29.83,1,0,9,0.38
2014-3-18,40.5,35.4,30.7,39.0,34.5,30.2,100,97,90,30.23,29.99,1,0,7,0.04
2014-3-19,51.6,43.2,38.3,44.1,40.9,38.3,100,92,75,30.24,30.05,2,0,9,0.02
2014-3-20,70.9,52.8,38.8,49.5,35.4,18.6,100,62,14,30.10,29.99,3,0,14,0.01
2014-3-21,71.3,53.2,31.8,33.6,27.7,23.1,88,43,18,30.22,30.08,2,0,11,0.00
2014-3-22,75.3,60.2,41.6,43.7,38.5,29.4,83,48,27,30.09,29.97,4,0,15,0.00
2014-3-23,60.4,47.1,36.2,45.4,40.8,31.9,96,81,34,30.19,29.95,1,0,7,0.07
2014-3-24,58.9,42.5,27.6,34.9,23.7,14.3,99,57,19,30.33,30.11,1,0,11,0.00
2014-3-25,50.2,41.5,35.0,39.7,30.5,20.0,87,67,31,30.11,29.85,3,0,18,0.06
2014-3-26,51.6,37.9,24.2,22.6,15.1,8.7,74,43,18,30.36,30.10,2,0,12,0.00
2014-3-27,64.7,45.5,26.0,42.0,23.7,17.8,81,49,19,30.49,30.30,2,0,14,0.00
2014-3-28,66.3,56.4,47.1,59.8,51.8,41.5,100,85,67,30.30,30.13,3,0,13,0.30
2014-3-29,68.8,60.8,55.0,64.3,58.8,48.3,100,94,76,30.15,29.65,3,1,14,0.35
2014-3-30,59.5,50.9,42.3,46.2,30.1,22.0,73,47,26,30.08,29.71,3,1,21,0.00
2014-3-31,78.5,55.5,35.2,37.2,27.0,18.2,84,43,11,30.19,30.07,1,0,6,0.00
2014-4-1,85.1,63.2,40.8,38.7,33.8,22.1,84,43,10,30.17,30.03,2,0,11,0.00
2014-4-2,87.8,69.3,48.8,41.1,36.3,28.4,71,34,13,30.14,30.03,4,1,16,0.00
2014-4-3,88.8,72.2,59.3,53.6,41.4,31.5,58,35,14,30.11,29.91,3,0,16,0.00
2014-4-4,82.0,71.2,57.6,58.4,51.5,43.8,73,51,36,29.94,29.76,5,2,20,0.00
2014-4-5,76.5,65.3,52.9,52.8,42.2,30.1,92,47,22,30.07,29.86,3,0,11,0.00
2014-4-6,57.3,53.3,48.8,34.7,30.7,28.7,56,42,35,30.17,30.07,1,0,9,0.00
2014-4-7,59.8,53.4,47.0,59.8,50.8,38.9,100,92,54,30.09,29.71,3,0,14,1.43
2014-4-8,69.6,60.9,54.5,61.8,50.3,38.6,100,72,42,29.75,29.63,2,0,12,0.02
2014-4-9,70.8,57.8,43.5,42.2,38.2,29.5,85,52,23,30.16,29.75,3,0,18,0.00
2014-4-10,77.6,58.4,37.3,43.6,36.3,30.7,100,53,19,30.31,30.16,3,0,14,0.00
2014-4-11,78.1,64.2,45.8,47.4,42.6,37.4,80,48,28,30.27,30.11,5,1,18,0.00
2014-4-12,85.7,68.5,49.2,51.0,47.0,41.0,95,52,24,30.25,30.12,2,0,11,0.00
2014-4-13,83.8,70.3,54.7,56.5,53.3,49.9,86,57,35,30.23,30.09,2,0,11,0.00
2014-4-14,79.6,69.3,61.6,64.6,58.8,52.5,88,71,45,30.10,29.81,3,1,15,0.01
2014-4-15,72.1,59.8,39.8,66.4,55.9,28.6,100,87,60,30.08,29.62,3,1,15,0.80
2014-4-16,60.2,45.3,31.2,32.8,25.6,20.3,79,50,26,30.47,30.09,3,0,17,0.00
2014-4-17,67.3,49.0,31.9,37.6,30.1,23.7,92,55,21,30.58,30.43,3,0,13,0.00
2014-4-18,60.5,51.0,43.3,49.1,42.2,36.1,100,74,49,30.46,30.20,2,0,12,0.58
2014-4-19,51.7,49.7,47.7,51.7,49.7,47.7,100,100,100,30.26,30.13,2,0,13,1.22
2014-4-20,72.8,58.2,46.5,49.8,40.3,30.0,100,60,22,30.29,30.20,2,0,16,0.03
2014-4-21,81.4,60.0,40.8,47.1,37.9,29.8,88,51,18,30.23,29.97,1,0,6,0.00
2014-4-22,83.8,62.8,49.1,60.0,51.7,45.4,97,71,28,29.96,29.76,3,0,12,0.01
2014-4-23,79.8,64.2,49.9,57.8,39.7,24.4,100,53,13,30.01,29.76,2,0,12,0.01
2014-4-24,78.8,62.4,46.1,48.9,37.4,30.9,66,42,24,30.17,30.00,2,0,12,0.00
2014-4-25,80.5,67.0,54.1,63.2,55.1,47.3,98,69,42,29.99,29.74,7,1,21,0.00
2014-4-26,84.7,67.7,48.2,49.6,44.0,38.7,94,48,21,30.07,29.90,2,0,14,0.00
2014-4-27,89.9,70.3,49.4,56.2,50.1,43.5,96,55,21,30.05,29.92,1,0,13,0.00
2014-4-28,87.8,74.8,64.2,64.8,61.4,56.3,97,65,40,29.96,29.84,3,0,13,0.01
2014-4-29,81.1,67.0,59.5,66.7,60.3,54.1,96,80,51,30.02,29.88,3,1,11,0.00
2014-4-30,80.7,70.8,61.8,70.3,63.5,59.6,100,80,55,30.02,29.89,3,0,13,0.24
2014-5-1,79.4,69.9,58.6,61.8,55.6,44.6,86,62,37,29.95,29.82,4,1,21,0.00
2014-5-2,73.9,60.4,48.8,52.1,46.0,37.4,99,64,28,30.01,29.89,2,0,9,0.00
2014-5-3,79.4,64.1,47.6,53.1,45.4,40.0,100,57,25,29.99,29.89,3,0,12,0.00
2014-5-4,87.2,68.2,47.3,53.9,48.1,44.2,100,56,24,30.06,29.89,4,1,16,0.00
2014-5-5,92.7,74.9,54.2,57.2,52.2,48.2,96,52,23,30.01,29.83,3,0,12,0.00
2014-5-6,92.3,74.7,55.4,58.9,53.2,48.9,95,52,24,29.98,29.85,2,0,10,0.00
2014-5-7,91.0,73.8,57.2,63.0,57.5,52.1,97,61,28,30.15,29.97,2,0,9,0.00
2014-5-8,91.0,74.3,56.3,59.5,56.1,51.7,96,59,28,30.23,30.11,5,1,18,0.00
2014-5-9,88.2,73.1,61.6,67.0,62.2,57.1,94,71,40,30.19,30.06,3,0,15,0.03
2014-5-10,85.3,69.5,63.5,71.0,65.0,60.9,100,87,50,30.15,30.05,4,0,17,0.42
2014-5-11,90.7,72.8,60.1,69.1,61.9,58.1,100,74,35,30.19,30.08,1,0,6,0.01
2014-5-12,94.0,76.4,59.8,67.9,62.4,56.0,100,68,29,30.22,30.11,2,0,10,0.00
2014-5-13,93.6,79.2,65.0,67.5,64.6,61.6,100,64,37,30.18,30.08,2,0,11,0.00
2014-5-14,90.5,77.6,67.1,67.0,62.8,57.4,94,64,34,30.18,30.03,2,1,13,0.00
2014-5-15,73.5,69.6,61.6,71.5,67.3,61.6,100,93,70,30.06,29.85,4,1,13,2.29
2014-5-16,73.7,61.3,51.9,61.2,49.1,41.0,100,69,34,30.13,29.91,3,0,20,0.00
2014-5-17,71.8,58.0,42.9,48.2,43.6,38.2,100,63,30,30.23,30.13,3,1,12,0.00
2014-5-18,72.1,59.6,51.4,51.5,48.5,44.5,92,69,39,30.29,30.20,1,0,5,0.00
2014-5-19,79.2,62.2,44.8,57.5,47.3,41.6,100,66,28,30.34,30.24,2,0,10,0.00
2014-5-20,81.8,66.1,49.6,60.5,54.9,48.2,100,70,44,30.33,30.13,3,1,11,0.00
2014-5-21,88.8,74.7,58.1,63.6,60.7,56.0,100,65,37,30.15,29.98,3,1,14,0.00
2014-5-22,92.5,79.7,68.3,66.1,61.1,56.5,78,55,32,30.04,29.93,4,1,14,0.00
2014-5-23,91.6,76.6,64.5,67.3,61.7,53.6,100,65,30,30.08,29.92,3,0,21,0.00
2014-5-24,87.4,73.5,59.2,60.7,49.5,43.3,78,46,22,30.16,30.02,1,0,7,0.00
2014-5-25,85.1,72.2,58.9,62.5,56.0,50.5,82,59,35,30.21,30.12,1,0,9,0.00
2014-5-26,89.9,75.2,59.2,67.0,62.8,58.2,100,68,43,30.23,30.09,2,0,11,0.00
2014-5-27,90.3,77.8,67.8,69.1,65.8,62.3,90,69,43,30.13,30.00,3,0,12,0.00
2014-5-28,92.5,79.5,66.1,68.5,63.8,59.0,97,63,34,30.06,29.96,3,0,11,0.00
2014-5-29,94.7,77.6,66.4,69.8,66.2,62.8,100,72,35,30.12,29.96,7,0,19,0.96
2014-5-30,85.9,74.6,66.3,71.3,68.0,66.0,100,82,52,30.12,30.04,2,0,10,0.00
2014-5-31,85.1,74.3,66.0,68.4,63.4,56.5,97,72,38,30.20,30.10,3,1,13,0.02
2014-6-1,82.8,71.5,60.4,63.4,56.1,51.5,94,62,35,30.34,30.20,4,1,12,0.00
2014-6-2,85.9,69.9,54.1,57.7,54.7,50.9,100,63,31,30.31,30.15,1,0,9,0.00
2014-6-3,89.7,73.6,56.7,65.4,60.4,56.1,100,67,37,30.17,29.98,1,0,9,0.00
2014-6-4,93.8,79.5,63.7,68.3,65.3,60.8,100,66,36,29.99,29.80,2,0,10,0.00
2014-6-5,94.0,82.7,72.5,70.7,66.8,62.2,86,61,37,29.86,29.76,2,0,11,0.00
2014-6-6,92.1,79.4,69.8,66.9,60.9,55.8,76,55,35,29.96,29.84,1,0,9,0.00
2014-6-7,88.4,77.6,71.3,69.1,65.2,59.2,92,68,38,30.03,29.92,2,1,10,0.00
2014-6-8,83.6,74.2,69.1,74.4,69.4,66.5,100,86,66,30.00,29.87,3,0,15,0.26
2014-6-9,93.6,80.0,72.1,72.3,69.9,66.6,98,74,44,29.93,29.85,2,0,9,0.00
2014-6-10,94.9,81.9,67.6,73.1,68.8,64.8,100,69,41,29.97,29.89,2,0,12,0.00
2014-6-11,91.8,76.9,68.8,70.6,66.7,63.3,100,74,43,29.99,29.85,4,0,14,1.17
2014-6-12,87.8,73.6,67.9,73.3,69.1,64.9,100,88,48,29.96,29.84,3,0,20,0.16
2014-6-13,89.3,75.9,65.5,70.4,66.2,61.8,100,76,43,29.91,29.82,3,0,14,0.05
2014-6-14,92.5,77.4,64.2,69.4,65.2,61.5,100,71,37,30.07,29.91,1,0,9,0.00
2014-6-15,95.6,79.3,63.7,67.3,62.5,57.3,98,62,28,30.19,30.06,1,0,7,0.00
2014-6-16,97.5,80.5,68.4,72.4,68.9,63.8,100,72,34,30.22,30.12,1,0,7,0.00
2014-6-17,95.9,82.2,69.3,72.4,68.6,64.2,100,67,36,30.20,30.08,2,0,11,0.00
2014-6-18,99.0,82.5,70.8,72.1,67.5,63.1,88,63,31,30.15,30.07,6,0,24,0.00
2014-6-19,98.7,81.4,69.1,72.0,67.8,64.6,95,67,33,30.15,30.02,4,0,15,0.00
2014-6-20,99.4,82.0,67.9,69.7,66.2,61.3,97,63,30,30.07,29.94,2,0,9,0.00
2014-6-21,96.1,81.6,70.4,73.1,68.3,63.8,97,67,35,29.95,29.82,1,0,12,0.01
2014-6-22,94.0,81.5,69.1,70.3,66.6,60.0,100,65,34,29.96,29.83,1,0,9,0.00
2014-6-23,92.7,81.0,71.8,69.5,67.1,64.3,89,65,40,30.11,29.97,3,1,12,0.00
2014-6-24,86.5,77.7,73.2,74.1,70.4,67.6,93,79,60,30.13,30.02,3,0,12,0.07
2014-6-25,90.5,78.9,70.4,71.8,70.5,68.5,100,78,49,30.04,29.93,5,0,19,0.01
2014-6-26,96.3,82.7,69.1,70.8,66.7,62.2,100,63,33,30.03,29.92,1,0,6,0.00
2014-6-27,94.9,78.7,70.8,73.5,69.9,66.9,100,77,43,30.13,29.97,3,0,10,1.82
2014-6-28,89.0,75.3,69.1,73.9,71.1,69.1,100,89,53,30.22,30.10,4,0,16,0.24
2014-6-29,89.5,77.2,67.9,72.0,65.3,56.6,100,71,38,30.27,30.13,1,0,7,0.00
2014-6-30,92.5,78.4,67.8,72.4,69.0,66.2,100,75,45,30.13,29.97,2,0,12,0.00
2014-7-1,96.1,82.4,70.9,74.4,72.2,70.5,100,75,46,30.01,29.90,1,0,10,0.00
2014-7-2,98.0,85.9,74.0,74.3,71.8,69.7,88,65,41,29.98,29.91,2,0,11,0.00
2014-7-3,97.1,82.4,72.0,73.9,71.3,69.1,100,72,42,30.01,29.84,2,0,11,0.46
2014-7-4,90.7,76.6,64.5,72.1,62.5,56.4,100,67,32,30.19,29.96,0,0,9,0.00
2014-7-5,90.3,75.9,63.5,61.4,53.9,49.5,81,49,25,30.31,30.19,3,0,13,0.00
2014-7-6,90.7,76.0,61.8,67.1,63.0,59.9,100,68,39,30.22,30.06,1,0,7,0.00
2014-7-7,93.6,80.2,67.6,72.1,68.5,64.7,100,71,42,30.10,29.95,2,0,11,0.00
2014-7-8,95.4,83.3,72.0,70.4,66.5,61.6,93,60,36,30.06,29.91,4,1,16,0.00
2014-7-9,92.3,78.7,71.8,74.9,68.6,64.6,100,73,43,30.04,29.96,2,0,16,0.14
2014-7-10,89.5,76.7,70.4,73.9,71.1,68.0,100,85,51,30.13,30.02,1,0,9,0.02
2014-7-11,93.4,79.2,69.1,71.8,69.6,65.6,100,76,42,30.22,30.09,2,0,9,0.00
2014-7-12,96.3,81.2,67.6,74.0,67.2,60.5,100,68,31,30.23,30.13,2,0,7,0.00
2014-7-13,96.6,82.7,70.1,72.7,67.7,63.6,100,64,35,30.16,30.02,2,0,10,0.00
2014-7-14,98.5,85.0,73.5,72.4,69.4,62.2,96,63,33,30.04,29.88,4,0,13,0.00
2014-7-15,94.9,80.4,69.1,74.1,70.3,66.7,100,74,42,29.91,29.73,4,0,14,2.44
2014-7-16,89.3,75.5,66.3,69.1,63.9,56.8,100,73,35,29.95,29.81,1,0,7,0.02
2014-7-17,89.7,75.6,61.3,64.3,58.4,53.5,79,57,35,30.10,29.95,1,0,12,0.00
2014-7-18,91.0,75.8,66.4,68.5,64.3,57.9,95,70,33,30.19,30.09,2,0,9,0.00
2014-7-19,76.5,70.1,66.1,67.0,63.9,59.6,100,82,58,30.18,30.11,0,0,4,0.09
2014-7-20,85.5,73.7,66.3,72.3,67.5,61.6,96,82,62,30.15,30.04,1,0,7,0.01
2014-7-21,74.7,73.5,71.6,74.7,73.4,71.6,100,100,94,30.16,30.05,2,0,9,1.21
2014-7-22,91.4,76.8,71.3,75.9,72.5,68.8,100,89,50,30.18,30.09,1,0,9,0.04
2014-7-23,95.1,80.9,69.8,76.7,72.1,69.8,100,78,47,30.12,29.94,1,0,7,0.00
2014-7-24,89.9,77.4,71.8,74.9,72.2,69.1,99,85,51,29.97,29.87,2,0,10,0.06
2014-7-25,89.9,77.5,68.4,71.4,68.5,65.8,99,76,49,30.08,29.96,1,0,11,0.00
2014-7-26,92.7,80.2,68.9,75.0,70.4,66.4,100,76,44,30.05,29.96,1,0,10,0.00
2014-7-27,94.0,80.0,70.3,76.7,72.0,68.6,100,79,48,30.00,29.84,3,0,13,0.19
2014-7-28,91.6,80.2,70.1,73.6,64.9,55.6,99,64,31,29.91,29.80,5,1,19,0.01
2014-7-29,88.2,75.7,63.1,63.6,58.7,54.7,89,58,33,30.00,29.89,1,0,9,0.00
2014-7-30,88.4,74.6,61.5,66.6,60.8,53.5,89,64,42,30.10,30.01,1,0,7,0.00
2014-7-31,85.3,74.5,66.4,70.4,67.3,62.8,100,80,47,30.15,30.07,2,0,12,0.28
2014-8-1,72.8,69.0,66.1,69.9,67.6,66.1,100,95,86,30.13,30.05,1,0,10,0.85
2014-8-2,76.5,69.0,65.8,67.9,66.3,65.5,100,92,71,30.17,30.08,0,0,6,0.00
2014-8-3,89.0,75.8,65.6,69.9,67.5,65.6,100,79,49,30.14,30.03,2,0,10,0.00
2014-8-4,91.0,77.9,68.1,72.7,68.3,64.4,100,76,43,30.12,30.02,1,0,10,0.00
2014-8-5,92.7,78.8,66.3,74.2,68.3,64.7,100,74,42,30.09,29.99,1,0,9,0.00
2014-8-6,93.6,80.5,69.4,75.0,68.2,58.6,100,71,33,30.04,29.94,1,0,9,0.06
2014-8-7,93.6,80.2,68.8,71.2,67.4,58.2,100,70,31,30.04,29.94,0,0,5,0.00
2014-8-8,83.6,76.5,69.3,72.7,70.0,67.0,100,81,62,30.13,30.02,2,0,9,0.00
2014-8-9,85.9,74.7,68.6,73.4,70.7,67.8,100,88,63,30.10,30.00,2,0,11,0.00
2014-8-10,74.4,70.4,66.8,71.8,68.9,66.8,100,95,83,30.11,30.04,1,0,9,0.00
2014-8-11,86.7,76.2,70.9,76.3,72.4,70.9,100,89,60,30.08,29.93,1,0,9,0.14
2014-8-12,90.7,78.9,71.8,79.8,74.4,71.3,100,88,56,29.96,29.78,1,0,13,0.27
2014-8-13,88.8,76.7,67.1,72.1,65.4,57.7,100,73,36,30.02,29.84,1,0,10,0.00
2014-8-14,89.3,73.4,58.3,64.6,59.2,53.8,100,67,32,30.09,29.99,1,0,10,0.00
2014-8-15,90.7,75.7,61.5,67.3,63.3,58.2,100,71,35,30.06,29.97,1,0,7,0.00
2014-8-16,90.7,78.0,67.9,74.0,69.1,65.3,100,77,46,30.05,29.98,2,0,7,0.00
2014-8-17,92.5,79.5,68.1,73.7,68.5,63.2,100,73,38,30.04,29.95,2,0,10,0.00
2014-8-18,93.4,79.4,70.6,73.0,69.3,62.7,100,74,40,29.96,29.79,4,1,15,0.00
2014-8-19,91.2,78.0,70.3,74.4,70.9,67.1,100,81,47,29.90,29.80,2,0,10,0.01
2014-8-20,94.7,80.9,68.3,76.1,70.6,68.0,100,75,43,30.04,29.90,2,0,9,0.01
2014-8-21,99.4,84.1,69.1,73.7,67.6,60.7,100,64,29,30.11,29.99,1,0,5,0.00
2014-8-22,99.2,85.8,72.3,75.8,70.5,65.9,100,65,35,30.06,29.94,3,0,10,0.00
2014-8-23,94.9,82.4,73.3,78.2,72.6,69.3,100,75,45,29.98,29.88,3,0,14,0.22
2014-8-24,81.6,75.9,67.9,76.3,68.6,64.1,100,80,59,30.11,29.93,2,1,15,0.04
2014-8-25,86.5,72.9,59.9,65.5,59.8,54.9,100,69,35,30.14,30.07,2,0,15,0.00
2014-8-26,89.0,73.5,59.8,65.5,59.2,54.0,100,66,32,30.17,30.08,2,0,12,0.00
2014-8-27,92.7,74.0,57.2,66.2,58.2,51.8,100,66,26,30.13,30.01,1,0,7,0.00
2014-8-28,98.0,78.6,60.7,68.9,63.3,59.4,100,66,31,30.06,29.96,1,0,7,0.00
2014-8-29,92.7,80.2,67.8,72.1,68.8,63.6,93,70,48,30.15,30.02,1,0,12,0.00
2014-8-30,96.3,81.8,68.9,75.5,68.7,61.7,100,70,35,30.22,30.09,1,0,10,0.00
2014-8-31,97.1,82.8,74.0,75.7,71.6,67.1,100,72,41,30.18,30.04,2,0,12,0.00
2014-9-1,98.2,83.5,70.8,74.5,68.9,57.1,100,67,26,30.13,30.03,3,0,10,0.00
2014-9-2,100.4,82.5,69.8,73.6,69.1,64.6,100,68,33,30.09,29.95,2,0,12,0.00
2014-9-3,99.0,80.0,70.1,75.0,70.0,64.4,100,77,33,30.13,29.98,2,0,10,0.60
2014-9-4,89.7,76.6,70.3,82.0,74.6,70.3,100,94,59,30.19,30.10,1,0,7,0.23
2014-9-5,94.0,80.3,70.3,76.8,71.3,67.6,100,77,44,30.22,30.07,3,0,14,0.01
2014-9-6,95.1,80.4,68.9,75.8,70.1,66.2,100,75,39,30.10,29.94,1,0,6,0.00
2014-9-7,89.3,77.9,70.4,73.3,70.6,68.5,100,81,52,30.08,29.97,7,1,19,0.00
2014-9-8,73.7,70.6,68.6,71.8,67.5,64.6,100,90,78,30.12,30.05,3,0,14,0.00
2014-9-9,79.2,72.2,66.4,69.3,66.9,64.4,100,85,65,30.17,30.08,1,0,6,0.00
2014-9-10,82.6,72.2,64.0,72.1,67.3,64.0,100,86,58,30.16,30.05,0,0,4,0.00
2014-9-11,91.4,76.2,64.7,76.1,70.2,64.7,100,85,51,30.08,29.96,4,1,12,0.04
2014-9-12,94.5,80.4,72.1,77.9,72.6,68.8,100,81,44,30.07,29.96,2,0,12,0.00
2014-9-13,89.7,78.1,70.4,77.8,73.6,69.2,100,88,56,30.17,30.03,2,0,8,0.53
2014-9-14,72.8,68.4,65.6,68.3,59.5,54.8,94,74,62,30.29,30.18,2,0,10,0.02
2014-9-15,77.6,70.5,65.2,70.9,66.1,63.5,100,87,68,30.25,30.13,1,0,6,0.04
2014-9-16,91.0,76.3,65.8,72.8,67.9,63.2,100,79,42,30.13,29.93,2,0,17,1.90
2014-9-17,76.0,67.2,62.0,70.3,65.6,62.0,100,95,73,30.01,29.93,0,0,5,0.01
2014-9-18,84.1,71.3,62.3,69.2,65.1,62.3,100,83,50,30.05,29.94,1,0,6,0.15
2014-9-19,80.9,70.4,65.3,68.1,63.1,57.6,100,81,46,30.24,30.04,2,0,12,1.43
2014-9-20,85.9,71.0,59.0,63.7,60.7,55.7,100,74,36,30.23,30.03,1,0,10,0.01
2014-9-21,87.8,72.4,56.6,65.8,62.2,56.6,100,74,43,30.03,29.85,4,0,13,0.00
2014-9-22,77.9,70.6,62.9,67.0,58.5,53.3,86,67,44,30.18,29.90,0,0,6,0.00
2014-9-23,64.2,59.5,53.3,59.2,52.7,50.8,94,79,68,30.34,30.16,1,0,11,0.02
2014-9-24,61.5,57.5,52.9,61.5,56.7,50.0,100,97,87,30.39,30.26,1,0,9,0.32
2014-9-25,72.7,64.7,60.9,66.6,62.5,60.9,100,93,74,30.28,30.19,0,0,7,0.03
2014-9-26,72.0,66.7,63.2,65.7,63.5,62.6,100,90,74,30.24,30.18,2,0,11,0.00
2014-9-27,79.0,67.2,57.3,64.3,59.6,56.8,100,80,48,30.25,30.16,2,0,11,0.00
2014-9-28,78.5,67.9,59.6,65.2,61.5,58.9,100,82,51,30.22,30.09,1,0,7,0.00
2014-9-29,69.3,66.3,64.7,68.8,66.0,64.7,100,99,90,30.09,29.99,0,0,1,0.12
2014-9-30,86.3,69.5,58.1,69.1,62.7,58.1,100,83,43,29.99,29.87,0,0,5,0.01
2014-10-1,87.0,71.0,57.0,69.6,61.8,55.6,100,77,35,30.05,29.92,0,0,4,0.00
2014-10-2,87.4,71.8,60.7,68.1,63.6,60.7,100,79,42,30.14,30.03,2,0,6,0.00
2014-10-3,80.5,70.4,61.3,74.2,67.7,61.3,100,92,63,30.07,29.78,1,0,11,0.06
2014-10-4,69.9,62.3,46.1,69.9,49.1,33.8,100,67,31,29.97,29.75,2,0,12,0.01
2014-10-5,67.4,52.1,37.5,45.7,39.2,33.3,100,67,29,30.09,29.95,2,0,15,0.00
2014-10-6,77.0,60.8,44.2,50.7,46.7,43.4,100,65,35,30.12,30.03,3,0,16,0.00
2014-10-7,80.3,65.2,51.9,59.9,54.7,49.5,100,71,44,30.17,30.02,2,0,13,0.00
2014-10-8,86.5,70.7,60.5,64.9,59.3,54.9,100,70,35,30.09,29.98,3,0,13,0.00
2014-10-9,82.4,67.5,53.5,60.0,55.3,50.7,100,70,37,30.20,30.08,2,0,10,0.00
2014-10-10,84.7,72.4,59.2,68.1,63.8,56.9,100,76,53,30.14,30.00,3,0,14,0.00
2014-10-11,86.5,73.9,67.6,74.2,68.9,66.3,100,86,52,30.06,29.94,4,0,19,0.34
2014-10-12,68.8,60.7,58.3,68.8,60.7,58.3,100,100,100,30.26,30.05,2,0,10,0.13
2014-10-13,77.6,67.1,60.4,71.3,65.9,60.4,100,96,76,30.27,30.13,2,0,7,0.02
2014-10-14,82.6,73.7,66.3,73.3,70.2,65.1,100,90,58,30.12,29.84,5,1,20,0.36
2014-10-15,74.4,64.4,57.6,65.3,56.0,49.6,100,77,43,29.90,29.82,3,1,13,0.46
2014-10-16,70.8,61.2,52.2,55.9,52.5,49.5,100,75,50,29.93,29.81,2,0,9,0.00
2014-10-17,76.0,59.7,44.1,56.0,51.4,44.1,100,78,45,30.00,29.85,1,0,7,0.00
2014-10-18,77.9,63.3,50.7,59.6,51.2,43.2,100,69,35,29.98,29.81,2,0,14,0.00
2014-10-19,71.6,56.8,43.8,47.9,44.3,37.6,100,68,29,30.17,29.99,1,0,7,0.00
2014-10-20,72.5,55.7,40.6,54.4,47.6,40.6,100,78,43,30.20,30.01,2,0,11,0.00
2014-10-21,75.6,60.1,45.5,58.1,49.0,40.7,100,72,35,30.01,29.87,2,0,12,0.00
2014-10-22,67.6,55.8,45.8,44.2,40.6,38.0,81,58,40,30.14,29.99,2,0,14,0.00
2014-10-23,70.6,52.6,37.9,46.7,42.1,37.9,100,73,33,30.14,30.02,1,0,10,0.00
2014-10-24,70.3,53.2,40.5,50.6,45.2,40.5,100,79,38,30.14,30.02,1,0,6,0.00
2014-10-25,76.3,54.7,36.9,52.8,41.9,33.3,100,71,22,30.10,29.96,1,0,7,0.00
2014-10-26,83.0,61.6,44.3,57.6,48.0,42.4,100,69,25,30.01,29.90,3,0,15,0.00
2014-10-27,83.0,61.1,43.5,57.3,47.1,37.9,100,70,24,30.16,30.01,1,0,7,0.00
2014-10-28,84.3,64.9,49.6,62.9,55.5,49.6,100,76,37,30.18,30.06,2,0,10,0.00
2014-10-29,77.6,65.9,56.9,59.9,56.3,45.8,100,73,50,30.07,29.93,4,0,14,0.00
2014-10-30,70.9,57.1,43.6,45.3,41.3,34.5,90,60,27,30.10,29.99,1,0,9,0.00
2014-10-31,63.7,50.6,40.5,49.4,44.4,40.5,100,82,51,30.01,29.80,1,0,9,0.37
2014-11-1,50.7,44.6,39.6,48.0,40.7,33.5,100,88,57,30.11,29.71,2,0,13,0.54
2014-11-2,56.3,42.2,30.0,33.4,26.6,18.8,94,59,24,30.42,30.11,1,0,15,0.00
2014-11-3,66.1,43.6,26.0,37.5,29.2,21.0,100,67,19,30.52,30.39,1,0,7,0.00
2014-11-4,67.3,50.8,34.9,41.2,36.7,30.9,100,65,27,30.41,30.29,2,0,9,0.00
2014-11-5,69.1,57.1,46.5,52.9,47.9,39.4,88,72,52,30.33,30.17,4,0,14,0.00
2014-11-6,69.9,61.6,50.1,60.3,52.7,29.5,88,74,37,30.17,29.78,6,1,17,0.00
2014-11-7,61.8,48.3,37.2,39.0,35.0,30.8,86,63,35,30.10,29.95,1,0,9,0.00
2014-11-8,59.6,45.2,31.3,43.3,37.0,31.3,100,76,46,30.15,30.00,1,0,7,0.00
2014-11-9,65.6,48.4,39.2,48.8,40.7,36.7,100,80,36,30.08,29.97,1,0,6,0.00
2014-11-10,68.1,48.5,33.5,48.9,39.6,33.5,100,77,33,30.17,30.07,3,0,10,0.00
2014-11-11,76.0,55.3,40.9,53.9,48.1,40.9,100,81,44,30.10,29.93,0,0,6,0.00
2014-11-12,78.5,58.3,40.8,54.8,49.1,40.8,100,76,39,30.05,29.96,1,0,6,0.01
2014-11-13,60.5,54.0,46.4,51.1,42.4,34.9,83,65,58,30.08,29.98,1,0,6,0.00
2014-11-14,47.3,38.2,29.1,34.9,22.6,13.1,84,55,31,30.41,30.06,1,0,9,0.00
2014-11-15,47.1,33.4,23.3,22.8,15.9,12.5,82,51,27,30.53,30.40,1,0,9,0.00
2014-11-16,53.3,42.8,26.9,37.7,29.1,22.1,85,61,33,30.44,30.08,1,0,6,0.00
2014-11-17,59.0,49.1,37.6,59.0,46.7,26.5,100,92,64,30.07,29.67,4,1,17,0.86
2014-11-18,38.9,30.7,21.0,26.6,14.6,9.4,80,53,31,30.40,30.00,2,0,11,0.00
2014-11-19,46.0,31.2,16.2,21.8,14.5,9.4,100,57,24,30.49,30.29,1,0,11,0.00
2014-11-20,58.9,42.6,28.1,31.8,24.6,14.9,74,51,31,30.29,30.10,4,1,14,0.00
2014-11-21,58.3,42.1,28.5,34.0,21.3,12.7,100,52,18,30.56,30.23,1,0,7,0.00
2014-11-22,56.7,39.2,23.3,29.4,19.5,13.1,82,50,21,30.64,30.35,1,0,7,0.00
2014-11-23,63.7,49.8,37.8,63.7,47.5,29.2,100,93,62,30.36,29.76,4,1,16,1.04
2014-11-24,75.1,65.6,60.2,65.0,60.2,56.4,100,84,53,29.94,29.75,4,1,15,0.00
2014-11-25,65.3,58.8,48.8,65.3,51.9,40.4,100,81,47,30.10,29.91,1,0,9,0.26
2014-11-26,52.0,45.2,39.3,48.8,43.9,39.3,100,96,68,30.08,29.96,1,0,6,0.89
2014-11-27,52.2,42.0,32.2,39.1,31.9,24.6,100,70,41,30.35,30.02,2,0,16,0.00
2014-11-28,47.0,34.6,25.1,25.4,22.2,16.7,96,64,30,30.46,30.34,1,0,7,0.00
2014-11-29,57.3,40.9,27.8,31.8,28.1,23.1,96,65,29,30.39,30.26,3,0,13,0.00
2014-11-30,67.8,52.2,40.3,49.4,40.2,31.4,82,64,49,30.37,30.25,4,1,17,0.00
2014-12-1,73.0,54.1,37.3,52.9,46.4,37.3,100,78,48,30.43,30.30,3,0,12,0.00
2014-12-2,52.2,47.9,42.9,52.2,47.3,42.9,100,98,84,30.45,30.32,1,0,7,0.00
2014-12-3,63.7,50.8,43.2,58.1,49.8,43.2,100,97,76,30.38,30.21,3,0,10,0.02
2014-12-4,64.0,53.3,45.5,50.2,46.7,41.3,100,80,51,30.43,30.28,3,0,11,0.00
2014-12-5,51.3,46.8,40.5,46.5,41.3,37.4,100,81,68,30.52,30.40,1,0,6,0.03
2014-12-6,52.6,47.6,40.5,52.6,47.6,40.5,100,100,100,30.39,30.10,2,0,6,0.22
2014-12-7,55.0,47.5,39.1,47.4,31.8,19.0,100,57,27,30.47,30.19,2,0,12,0.00
2014-12-8,42.3,38.6,37.2,37.6,29.6,19.9,100,73,48,30.47,30.22,1,0,6,0.03
2014-12-9,53.9,44.0,37.6,42.6,36.5,30.6,100,78,53,30.21,29.98,1,0,9,0.00
2014-12-10,52.5,39.0,28.2,34.4,28.5,24.6,100,70,38,30.12,30.04,1,0,15,0.00
2014-12-11,50.5,33.6,24.1,31.0,23.6,17.1,100,73,27,30.23,30.08,2,0,9,0.00
2014-12-12,59.0,37.5,22.5,27.9,21.1,12.7,100,61,19,30.34,30.20,2,0,9,0.00
2014-12-13,64.2,41.7,25.8,28.6,23.4,16.4,89,56,16,30.25,30.09,2,0,9,0.00
2014-12-14,62.0,40.6,26.6,31.3,27.6,24.7,100,66,25,30.14,30.04,0,0,3,0.00
2014-12-15,61.2,41.6,28.1,39.6,33.2,27.8,100,76,37,30.19,30.08,1,0,5,0.00
2014-12-16,58.3,46.2,34.3,57.2,45.3,34.3,100,97,85,30.10,29.90,3,0,12,0.14
2014-12-17,58.9,43.4,31.0,43.5,36.7,31.0,100,81,44,30.20,30.08,2,0,6,0.01
2014-12-18,56.2,42.0,31.5,37.0,30.8,22.4,100,70,27,30.25,30.11,1,0,9,0.00
2014-12-19,56.5,41.9,29.5,34.7,30.9,26.0,100,70,34,30.24,30.13,1,0,6,0.00
2014-12-20,45.1,42.4,39.6,39.0,35.1,29.9,95,76,59,30.32,30.21,1,0,6,0.04
2014-12-21,51.1,45.0,39.9,38.8,37.1,35.2,85,74,61,30.35,30.21,1,0,6,0.00
2014-12-22,45.5,39.5,37.8,42.8,39.3,37.7,100,99,74,30.22,30.06,1,0,9,0.29
2014-12-23,45.4,41.1,37.8,45.4,41.1,37.8,100,100,100,30.14,29.93,3,0,11,0.23
2014-12-24,62.9,52.2,45.4,62.9,52.1,45.4,100,100,87,29.93,29.69,4,0,15,1.11
2014-12-25,56.3,47.9,32.9,52.1,38.9,32.9,100,73,42,30.32,29.74,4,1,15,0.00
2014-12-26,58.7,40.4,27.8,42.3,33.0,27.8,100,80,38,30.43,30.30,1,0,5,0.01
2014-12-27,64.0,45.6,29.5,43.5,35.4,29.5,100,73,28,30.40,30.22,2,0,6,0.00
2014-12-28,59.6,55.3,49.8,58.9,52.9,39.9,100,92,67,30.22,30.03,2,0,11,0.04
2014-12-29,57.2,54.4,45.2,57.2,54.4,45.2,100,100,100,30.18,30.03,2,0,10,0.74
2014-12-30,45.1,38.9,29.8,45.1,37.7,29.8,100,96,79,30.51,30.17,1,0,10,0.05
2014-12-31,46.2,34.3,26.1,34.4,30.0,26.1,100,86,54,30.54,30.41,1,0,5,0.00
2015-1-1,54.4,40.0,26.0,37.0,31.6,26.0,100,76,41,30.43,30.26,2,0,10,0.00
2015-1-2,52.0,47.4,41.3,48.0,40.6,32.6,100,78,55,30.40,30.27,1,0,6,0.14